createdAt,value
2017-08-01T00:01:11.582Z,73.74
2017-08-01T00:03:41.030Z,74.31
2017-08-01T00:06:10.492Z,74.80
2017-08-01T00:08:39.973Z,75.07
2017-08-01T00:11:10.249Z,75.29
2017-08-01T00:13:39.684Z,75.33
2017-08-01T00:16:09.149Z,75.76
2017-08-01T00:18:38.598Z,75.83
2017-08-01T00:21:08.051Z,75.18
2017-08-01T00:23:37.496Z,75.39
2017-08-01T00:26:06.968Z,75.85
2017-08-01T00:28:36.404Z,75.33
2017-08-01T00:31:05.869Z,75.04
2017-08-01T00:33:35.307Z,75.17
2017-08-01T00:36:04.778Z,74.03
2017-08-01T00:38:34.210Z,74.15
2017-08-01T00:41:03.645Z,74.88
2017-08-01T00:43:33.118Z,75.31
2017-08-01T00:46:02.581Z,75.50
2017-08-01T00:48:32.019Z,75.84
2017-08-01T00:51:01.464Z,76.04
2017-08-01T00:53:30.910Z,76.38
2017-08-01T00:56:00.336Z,76.53
2017-08-01T00:58:29.780Z,76.03
2017-08-01T01:00:59.248Z,76.29
2017-08-01T01:03:29.362Z,76.06
2017-08-01T01:05:58.806Z,75.31
2017-08-01T01:08:28.250Z,74.47
2017-08-01T01:10:57.696Z,74.84
2017-08-01T01:13:27.137Z,75.31
2017-08-01T01:15:56.633Z,75.78
2017-08-01T01:18:25.881Z,75.34
2017-08-01T01:20:55.338Z,75.63
2017-08-01T01:23:24.805Z,76.13
2017-08-01T01:25:54.248Z,72.94
2017-08-01T01:28:23.687Z,72.27
2017-08-01T01:30:53.145Z,72.46
2017-08-01T01:33:22.597Z,73.89
2017-08-01T01:35:52.046Z,74.50
2017-08-01T01:38:21.524Z,75.01
2017-08-01T01:40:50.634Z,75.38
2017-08-01T01:43:20.092Z,75.96
2017-08-01T01:45:49.541Z,76.27
2017-08-01T01:48:19.059Z,76.44
2017-08-01T01:50:49.008Z,76.35
2017-08-01T01:53:18.158Z,76.66
2017-08-01T01:55:47.580Z,76.79
2017-08-01T01:58:17.044Z,76.92
2017-08-01T02:00:46.165Z,76.94
2017-08-01T02:03:15.624Z,76.95
2017-08-01T02:05:45.069Z,77.59
2017-08-01T02:08:14.512Z,77.44
2017-08-01T02:10:44.005Z,78.15
2017-08-01T02:13:13.481Z,78.48
2017-08-01T02:15:42.916Z,78.09
2017-08-01T02:18:12.185Z,77.55
2017-08-01T02:20:41.637Z,77.39
2017-08-01T02:23:10.776Z,78.02
2017-08-01T02:25:40.071Z,78.50
2017-08-01T02:28:09.714Z,78.59
2017-08-01T02:30:39.152Z,78.95
2017-08-01T02:33:08.625Z,79.11
2017-08-01T02:35:38.110Z,80.05
2017-08-01T02:38:07.536Z,80.14
2017-08-01T02:40:37.026Z,80.61
2017-08-01T02:43:06.478Z,80.63
2017-08-01T02:45:35.908Z,80.61
2017-08-01T02:48:05.366Z,80.61
2017-08-01T02:50:34.815Z,80.48
2017-08-01T02:53:04.277Z,80.34
2017-08-01T02:55:33.708Z,80.34
2017-08-01T02:58:03.173Z,80.50
2017-08-01T03:00:32.615Z,80.53
2017-08-01T03:03:01.877Z,80.83
2017-08-01T03:05:31.328Z,80.82
2017-08-01T03:08:00.784Z,80.92
2017-08-01T03:10:30.242Z,81.17
2017-08-01T03:12:59.715Z,81.15
2017-08-01T03:15:29.137Z,81.59
2017-08-01T03:17:58.597Z,81.51
2017-08-01T03:20:28.059Z,82.15
2017-08-01T03:22:57.509Z,82.17
2017-08-01T03:25:26.960Z,82.30
2017-08-01T03:27:56.397Z,82.51
2017-08-01T03:30:25.857Z,82.38
2017-08-01T03:32:55.313Z,82.80
2017-08-01T03:35:24.774Z,82.77
2017-08-01T03:37:54.216Z,82.98
2017-08-01T03:40:23.735Z,83.23
2017-08-01T03:42:53.178Z,83.17
2017-08-01T03:45:22.688Z,83.33
2017-08-01T03:47:52.165Z,82.88
2017-08-01T03:50:21.672Z,82.93
2017-08-01T03:52:51.116Z,82.99
2017-08-01T03:55:20.610Z,82.61
2017-08-01T03:57:50.139Z,82.94
2017-08-01T04:00:19.618Z,82.85
2017-08-01T04:02:49.036Z,82.79
2017-08-01T04:05:18.533Z,82.83
2017-08-01T04:07:47.970Z,82.74
2017-08-01T04:10:17.465Z,82.47
2017-08-01T04:12:46.904Z,82.85
2017-08-01T04:15:16.528Z,82.81
2017-08-01T04:17:46.151Z,82.72
2017-08-01T04:20:15.621Z,82.84
2017-08-01T04:22:45.214Z,82.63
2017-08-01T04:25:14.681Z,82.37
2017-08-01T04:27:44.162Z,82.32
2017-08-01T04:30:13.628Z,82.28
2017-08-01T04:32:43.297Z,82.18
2017-08-01T04:35:12.781Z,82.04
2017-08-01T04:37:42.226Z,81.83
2017-08-01T04:40:11.685Z,81.66
2017-08-01T04:42:41.512Z,81.43
2017-08-01T04:45:10.998Z,81.48
2017-08-01T04:47:40.258Z,81.20
2017-08-01T04:50:09.736Z,80.94
2017-08-01T04:52:39.201Z,80.83
2017-08-01T04:55:08.698Z,80.35
2017-08-01T04:57:38.182Z,79.98
2017-08-01T05:00:07.668Z,79.65
2017-08-01T05:02:37.101Z,79.29
2017-08-01T05:05:06.601Z,79.12
2017-08-01T05:07:36.034Z,78.90
2017-08-01T05:10:05.605Z,78.77
2017-08-01T05:12:35.042Z,79.11
2017-08-01T05:15:04.588Z,79.33
2017-08-01T05:17:34.018Z,78.58
2017-08-01T05:20:03.592Z,77.77
2017-08-01T05:22:33.051Z,77.91
2017-08-01T05:25:02.569Z,77.59
2017-08-01T05:27:32.026Z,76.97
2017-08-01T05:30:01.476Z,76.39
2017-08-01T05:32:30.928Z,75.91
2017-08-01T05:35:00.447Z,75.50
2017-08-01T05:37:29.887Z,74.73
2017-08-01T05:39:59.349Z,73.98
2017-08-01T05:42:28.782Z,73.73
2017-08-01T05:44:58.237Z,73.33
2017-08-01T05:47:27.685Z,73.09
2017-08-01T05:49:57.139Z,73.66
2017-08-01T05:52:26.589Z,73.20
2017-08-01T05:54:56.029Z,72.51
2017-08-01T05:57:25.507Z,72.06
2017-08-01T05:59:54.968Z,71.37
2017-08-01T06:02:24.435Z,71.34
2017-08-01T06:04:53.890Z,70.89
2017-08-01T06:07:23.338Z,70.71
2017-08-01T06:09:52.771Z,71.05
2017-08-01T06:12:22.221Z,70.90
2017-08-01T06:14:51.492Z,69.46
2017-08-01T06:17:20.945Z,67.59
2017-08-01T06:19:50.400Z,65.46
2017-08-01T06:22:19.847Z,64.33
2017-08-01T06:24:49.305Z,63.78
2017-08-01T06:27:18.757Z,63.19
2017-08-01T06:29:48.213Z,62.73
2017-08-01T06:32:17.660Z,62.52
2017-08-01T06:34:47.115Z,62.15
2017-08-01T06:37:16.573Z,61.36
2017-08-01T06:39:45.835Z,61.68
2017-08-01T06:42:15.293Z,61.42
2017-08-01T06:44:44.736Z,61.06
2017-08-01T06:47:14.193Z,60.97
2017-08-01T06:49:43.648Z,61.42
2017-08-01T06:52:13.088Z,61.54
2017-08-01T06:54:42.546Z,61.21
2017-08-01T06:57:13.621Z,60.94
2017-08-01T06:59:43.060Z,61.05
2017-08-01T07:02:12.621Z,60.69
2017-08-01T07:04:42.078Z,60.27
2017-08-01T07:07:11.549Z,60.02
2017-08-01T07:09:40.986Z,59.37
2017-08-01T07:12:10.439Z,59.72
2017-08-01T07:14:39.895Z,59.29
2017-08-01T07:17:09.340Z,57.20
2017-08-01T07:19:38.902Z,56.12
2017-08-01T07:22:08.359Z,56.49
2017-08-01T07:24:37.805Z,55.10
2017-08-01T07:27:07.275Z,52.97
2017-08-01T07:29:36.729Z,52.68
2017-08-01T07:32:06.177Z,53.66
2017-08-01T07:34:35.623Z,51.11
2017-08-01T07:37:04.879Z,51.77
2017-08-01T07:39:34.331Z,49.94
2017-08-01T07:42:03.806Z,50.87
2017-08-01T07:44:33.263Z,49.33
2017-08-01T07:47:02.716Z,49.38
2017-08-01T07:49:32.172Z,48.53
2017-08-01T07:52:01.627Z,50.65
2017-08-01T07:54:31.076Z,51.41
2017-08-01T07:57:00.534Z,50.51
2017-08-01T07:59:29.988Z,48.44
2017-08-01T08:01:59.426Z,44.66
2017-08-01T08:04:28.885Z,45.83
2017-08-01T08:06:58.352Z,44.71
2017-08-01T08:09:27.784Z,42.95
2017-08-01T08:11:57.234Z,44.04
2017-08-01T08:14:26.682Z,44.23
2017-08-01T08:16:56.124Z,44.02
2017-08-01T08:19:25.576Z,44.77
2017-08-01T08:21:55.033Z,44.40
2017-08-01T08:24:24.492Z,43.24
2017-08-01T08:26:53.925Z,43.07
2017-08-01T08:29:23.396Z,43.96
2017-08-01T08:31:52.830Z,43.86
2017-08-01T08:34:22.283Z,41.16
2017-08-01T08:36:51.731Z,43.93
2017-08-01T08:39:21.164Z,41.43
2017-08-01T08:41:50.617Z,42.70
2017-08-01T08:44:20.059Z,43.66
2017-08-01T08:46:49.514Z,41.94
2017-08-01T08:49:18.958Z,43.08
2017-08-01T08:51:48.413Z,41.65
2017-08-01T08:54:17.877Z,40.12
2017-08-01T08:56:47.346Z,40.54
2017-08-01T08:59:16.799Z,40.84
2017-08-01T09:01:46.249Z,40.83
2017-08-01T09:04:15.712Z,37.32
2017-08-01T09:06:45.160Z,39.45
2017-08-01T09:09:14.623Z,40.67
2017-08-01T09:11:44.736Z,39.68
2017-08-01T09:14:14.188Z,39.26
2017-08-01T09:16:43.632Z,39.98
2017-08-01T09:19:13.101Z,38.73
2017-08-01T09:21:42.554Z,38.75
2017-08-01T09:24:12.002Z,37.87
2017-08-01T09:26:41.445Z,38.74
2017-08-01T09:29:10.728Z,40.35
2017-08-01T09:31:40.169Z,40.33
2017-08-01T09:34:09.621Z,40.44
2017-08-01T09:36:39.077Z,42.90
2017-08-01T09:39:08.522Z,43.32
2017-08-01T09:41:37.971Z,42.24
2017-08-01T09:44:07.426Z,40.78
2017-08-01T09:46:36.861Z,40.07
2017-08-01T09:49:06.317Z,39.10
2017-08-01T09:51:35.757Z,39.89
2017-08-01T09:54:05.193Z,39.19
2017-08-01T09:56:34.643Z,38.66
2017-08-01T09:59:04.101Z,39.17
2017-08-01T10:01:33.556Z,37.52
2017-08-01T10:04:02.986Z,39.30
2017-08-01T10:06:32.449Z,40.05
2017-08-01T10:09:01.905Z,38.90
2017-08-01T10:11:31.363Z,39.47
2017-08-01T10:14:00.803Z,38.57
2017-08-01T10:16:30.257Z,39.25
2017-08-01T10:18:59.892Z,38.00
2017-08-01T10:21:29.335Z,38.67
2017-08-01T10:23:58.770Z,38.70
2017-08-01T10:26:28.218Z,38.43
2017-08-01T10:28:57.678Z,38.01
2017-08-01T10:31:27.138Z,37.61
2017-08-01T10:33:56.582Z,39.09
2017-08-01T10:36:26.025Z,37.08
2017-08-01T10:38:55.464Z,37.27
2017-08-01T10:41:24.916Z,36.63
2017-08-01T10:43:54.379Z,35.23
2017-08-01T10:46:23.823Z,35.21
2017-08-01T10:48:53.273Z,36.29
2017-08-01T10:51:22.744Z,34.52
2017-08-01T10:53:52.200Z,33.18
2017-08-01T10:56:21.654Z,34.00
2017-08-01T10:58:51.095Z,35.07
2017-08-01T11:01:20.550Z,34.61
2017-08-01T11:03:50.000Z,34.20
2017-08-01T11:06:19.481Z,33.15
2017-08-01T11:08:48.917Z,31.79
2017-08-01T11:11:18.365Z,31.37
2017-08-01T11:13:47.824Z,29.25
2017-08-01T11:16:17.312Z,30.43
2017-08-01T11:18:46.769Z,29.27
2017-08-01T11:21:16.222Z,27.61
2017-08-01T11:23:45.680Z,26.93
2017-08-01T11:26:15.141Z,27.87
2017-08-01T11:28:44.602Z,27.32
2017-08-01T11:31:14.040Z,26.07
2017-08-01T11:33:43.498Z,27.03
2017-08-01T11:36:12.960Z,26.95
2017-08-01T11:38:42.405Z,26.72
2017-08-01T11:41:11.868Z,27.27
2017-08-01T11:43:41.318Z,25.75
2017-08-01T11:46:10.770Z,24.20
2017-08-01T11:48:40.242Z,23.30
2017-08-01T11:51:09.502Z,23.51
2017-08-01T11:53:38.940Z,24.26
2017-08-01T11:56:08.454Z,24.09
2017-08-01T11:58:37.884Z,24.50
2017-08-01T12:01:07.577Z,27.42
2017-08-01T12:03:37.048Z,25.24
2017-08-01T12:06:06.513Z,25.40
2017-08-01T12:08:35.948Z,25.31
2017-08-01T12:11:05.479Z,24.42
2017-08-01T12:13:34.908Z,25.06
2017-08-01T12:16:04.360Z,25.73
2017-08-01T12:18:33.824Z,24.61
2017-08-01T12:21:03.273Z,23.78
2017-08-01T12:23:32.749Z,23.07
2017-08-01T12:26:02.212Z,25.57
2017-08-01T12:28:31.758Z,26.36
2017-08-01T12:31:01.023Z,24.53
2017-08-01T12:33:30.456Z,22.62
2017-08-01T12:35:59.892Z,18.47
2017-08-01T12:38:29.165Z,19.36
2017-08-01T12:40:58.636Z,15.90
2017-08-01T12:43:28.097Z,15.12
2017-08-01T12:45:57.648Z,15.43
2017-08-01T12:48:27.088Z,14.83
2017-08-01T12:50:56.529Z,16.04
2017-08-01T12:53:25.970Z,14.94
2017-08-01T12:55:55.434Z,15.96
2017-08-01T12:58:24.887Z,16.04
2017-08-01T13:00:54.367Z,15.34
2017-08-01T13:03:23.803Z,14.41
2017-08-01T13:05:53.255Z,14.79
2017-08-01T13:08:22.697Z,14.51
2017-08-01T13:10:52.138Z,12.63
2017-08-01T13:13:21.577Z,12.49
2017-08-01T13:15:51.021Z,12.41
2017-08-01T13:18:20.484Z,11.48
2017-08-01T13:20:49.925Z,11.73
2017-08-01T13:23:19.369Z,12.25
2017-08-01T13:25:49.410Z,12.76
2017-08-01T13:28:18.842Z,12.50
2017-08-01T13:30:48.277Z,10.60
2017-08-01T13:33:17.733Z,11.60
2017-08-01T13:35:47.765Z,9.59
2017-08-01T13:38:17.793Z,8.38
2017-08-01T13:40:47.819Z,8.92
2017-08-01T13:43:17.826Z,10.22
2017-08-01T13:45:47.841Z,9.93
2017-08-01T13:48:17.849Z,9.49
2017-08-01T13:50:47.868Z,9.05
2017-08-01T13:53:17.905Z,10.64
2017-08-01T13:55:47.904Z,10.88
2017-08-01T13:58:17.917Z,9.70
2017-08-01T14:00:47.934Z,8.08
2017-08-01T14:03:17.950Z,7.89
2017-08-01T14:05:47.969Z,7.33
2017-08-01T14:08:17.989Z,7.33
2017-08-01T14:10:48.024Z,7.73
2017-08-01T14:13:18.047Z,7.97
2017-08-01T14:15:48.044Z,8.21
2017-08-01T14:18:18.046Z,8.30
2017-08-01T14:20:48.124Z,8.20
2017-08-01T14:23:18.133Z,8.72
2017-08-01T14:25:48.161Z,8.98
2017-08-01T14:28:18.172Z,10.10
2017-08-01T14:30:48.169Z,9.70
2017-08-01T14:33:18.185Z,9.84
2017-08-01T14:35:48.195Z,8.98
2017-08-01T14:38:18.201Z,9.51
2017-08-01T14:40:48.217Z,9.12
2017-08-01T14:43:18.715Z,9.26
2017-08-01T14:45:48.760Z,8.96
2017-08-01T14:48:18.764Z,8.90
2017-08-01T14:50:49.322Z,8.26
2017-08-01T14:53:19.320Z,8.64
2017-08-01T14:55:49.329Z,9.74
2017-08-01T14:58:19.357Z,10.00
2017-08-01T15:00:49.385Z,9.82
2017-08-01T15:03:19.388Z,9.91
2017-08-01T15:05:49.434Z,10.09
2017-08-01T15:08:19.454Z,9.15
2017-08-01T15:10:49.484Z,9.36
2017-08-01T15:13:19.509Z,7.62
2017-08-01T15:15:49.516Z,8.32
2017-08-01T15:18:19.545Z,7.84
2017-08-01T15:20:49.549Z,7.86
2017-08-01T15:23:19.561Z,9.36
2017-08-01T15:25:49.632Z,9.51
2017-08-01T15:28:19.681Z,9.36
2017-08-01T15:30:49.843Z,10.25
2017-08-01T15:33:19.854Z,10.44
2017-08-01T15:35:49.676Z,9.54
2017-08-01T15:38:19.699Z,9.38
2017-08-01T15:40:49.720Z,10.54
2017-08-01T15:43:19.772Z,9.16
2017-08-01T15:45:49.763Z,10.20
2017-08-01T15:48:19.834Z,9.66
2017-08-01T15:50:50.158Z,9.38
2017-08-01T15:53:20.166Z,11.07
2017-08-01T15:55:50.206Z,10.56
2017-08-01T15:58:20.236Z,9.42
2017-08-01T16:00:50.270Z,10.80
2017-08-01T16:03:19.712Z,10.55
2017-08-01T16:05:49.721Z,9.58
2017-08-01T16:08:19.755Z,9.86
2017-08-01T16:10:49.763Z,11.54
2017-08-01T16:13:19.774Z,11.35
2017-08-01T16:15:49.804Z,10.52
2017-08-01T16:18:19.849Z,12.12
2017-08-01T16:20:49.881Z,12.81
2017-08-01T16:23:19.902Z,13.10
2017-08-01T16:25:49.913Z,12.83
2017-08-01T16:28:19.944Z,14.09
2017-08-01T16:30:50.007Z,13.59
2017-08-01T16:33:20.036Z,13.30
2017-08-01T16:35:50.058Z,12.67
2017-08-01T16:38:19.531Z,13.68
2017-08-01T16:40:49.544Z,13.24
2017-08-01T16:43:19.552Z,14.11
2017-08-01T16:45:49.012Z,13.31
2017-08-01T16:48:18.468Z,13.82
2017-08-01T16:50:47.905Z,13.51
2017-08-01T16:53:17.338Z,14.72
2017-08-01T16:55:46.801Z,14.81
2017-08-01T16:58:16.254Z,16.52
2017-08-01T17:00:45.694Z,16.83
2017-08-01T17:03:15.150Z,16.66
2017-08-01T17:05:44.596Z,19.05
2017-08-01T17:08:14.053Z,19.35
2017-08-01T17:10:43.516Z,17.18
2017-08-01T17:13:12.952Z,18.60
2017-08-01T17:15:42.385Z,18.80
2017-08-01T17:18:11.952Z,20.52
2017-08-01T17:20:41.393Z,21.17
2017-08-01T17:23:10.716Z,21.32
2017-08-01T17:25:40.201Z,22.06
2017-08-01T17:28:09.647Z,22.09
2017-08-01T17:30:39.099Z,21.76
2017-08-01T17:33:08.581Z,24.02
2017-08-01T17:35:38.033Z,23.58
2017-08-01T17:38:07.494Z,23.72
2017-08-01T17:40:36.929Z,24.73
2017-08-01T17:43:06.388Z,25.42
2017-08-01T17:45:35.869Z,27.50
2017-08-01T17:48:05.322Z,31.75
2017-08-01T17:50:34.809Z,33.46
2017-08-01T17:53:04.290Z,34.31
2017-08-01T17:55:33.730Z,34.27
2017-08-01T17:58:03.174Z,34.54
2017-08-01T18:00:32.643Z,35.40
2017-08-01T18:03:02.092Z,36.24
2017-08-01T18:05:31.894Z,37.72
2017-08-01T18:08:01.429Z,39.08
2017-08-01T18:10:30.920Z,40.01
2017-08-01T18:13:00.465Z,39.46
2017-08-01T18:15:29.924Z,41.02
2017-08-01T18:17:59.382Z,41.39
2017-08-01T18:20:28.879Z,42.51
2017-08-01T18:22:58.329Z,43.07
2017-08-01T18:25:27.757Z,43.31
2017-08-01T18:27:57.308Z,43.90
2017-08-01T18:30:26.765Z,44.71
2017-08-01T18:32:56.224Z,44.85
2017-08-01T18:35:25.681Z,45.50
2017-08-01T18:37:55.146Z,46.03
2017-08-01T18:40:24.649Z,46.32
2017-08-01T18:42:54.123Z,46.82
2017-08-01T18:45:23.648Z,47.61
2017-08-01T18:47:53.105Z,48.39
2017-08-01T18:50:22.628Z,48.59
2017-08-01T18:52:52.083Z,48.86
2017-08-01T18:55:21.724Z,50.03
2017-08-01T18:57:51.022Z,50.86
2017-08-01T19:00:20.503Z,51.17
2017-08-01T19:02:49.769Z,51.36
2017-08-01T19:05:19.466Z,51.46
2017-08-01T19:07:49.158Z,52.19
2017-08-01T19:10:19.178Z,52.72
2017-08-01T19:12:48.768Z,53.03
2017-08-01T19:15:18.516Z,52.37
2017-08-01T19:17:48.046Z,52.74
2017-08-01T19:20:18.242Z,52.18
2017-08-01T19:22:47.807Z,52.05
2017-08-01T19:25:17.643Z,51.23
2017-08-01T19:27:47.474Z,50.98
2017-08-01T19:30:17.127Z,50.69
2017-08-01T19:32:46.690Z,51.34
2017-08-01T19:35:16.284Z,51.89
2017-08-01T19:37:45.843Z,50.79
2017-08-01T19:40:15.504Z,50.80
2017-08-01T19:42:45.207Z,50.91
2017-08-01T19:45:14.713Z,50.77
2017-08-01T19:47:44.144Z,51.01
2017-08-01T19:50:13.654Z,50.38
2017-08-01T19:52:43.512Z,50.55
2017-08-01T19:55:13.146Z,50.68
2017-08-01T19:57:43.210Z,50.16
2017-08-01T20:00:12.877Z,50.12
2017-08-01T20:02:42.823Z,50.56
2017-08-01T20:05:12.547Z,50.23
2017-08-01T20:07:41.824Z,50.72
2017-08-01T20:10:11.542Z,50.36
2017-08-01T20:12:41.729Z,50.99
2017-08-01T20:15:11.545Z,51.63
2017-08-01T20:17:41.306Z,51.91
2017-08-01T20:20:11.101Z,52.61
2017-08-01T20:22:42.203Z,53.18
2017-08-01T20:25:12.248Z,53.17
2017-08-01T20:27:42.090Z,53.02
2017-08-01T20:30:11.669Z,53.45
2017-08-01T20:32:41.499Z,53.81
2017-08-01T20:35:11.466Z,53.87
2017-08-01T20:37:41.190Z,54.39
2017-08-01T20:40:10.840Z,55.08
2017-08-01T20:42:40.465Z,55.37
2017-08-01T20:45:10.209Z,55.55
2017-08-01T20:47:39.837Z,55.80
2017-08-01T20:50:09.622Z,55.83
2017-08-01T20:52:39.709Z,55.98
2017-08-01T20:55:09.443Z,56.58
2017-08-01T20:57:39.274Z,55.39
2017-08-01T21:00:09.214Z,55.51
2017-08-01T21:02:39.086Z,55.31
2017-08-01T21:05:08.940Z,55.64
2017-08-01T21:07:38.865Z,55.18
2017-08-01T21:10:08.603Z,56.00
2017-08-01T21:12:38.462Z,55.90
2017-08-01T21:15:08.217Z,56.54
2017-08-01T21:17:37.845Z,57.10
2017-08-01T21:20:07.424Z,57.72
2017-08-01T21:22:37.216Z,56.84
2017-08-01T21:25:06.697Z,57.59
2017-08-01T21:27:36.146Z,57.60
2017-08-01T21:30:05.640Z,56.87
2017-08-01T21:32:35.105Z,57.20
2017-08-01T21:35:04.608Z,58.41
2017-08-01T21:37:34.081Z,59.46
2017-08-01T21:40:03.562Z,59.62
2017-08-01T21:42:33.001Z,60.22
2017-08-01T21:45:02.504Z,60.37
2017-08-01T21:47:31.950Z,59.51
2017-08-01T21:50:01.487Z,58.07
2017-08-01T21:52:30.937Z,57.49
2017-08-01T21:55:00.393Z,56.97
2017-08-01T21:57:29.852Z,55.43
2017-08-01T21:59:59.403Z,54.86
2017-08-01T22:02:28.832Z,53.94
2017-08-01T22:04:58.289Z,53.81
2017-08-01T22:07:27.757Z,53.35
2017-08-01T22:09:57.296Z,51.29
2017-08-01T22:12:26.757Z,50.67
2017-08-01T22:14:56.217Z,49.13
2017-08-01T22:17:25.668Z,48.97
2017-08-01T22:19:55.117Z,48.37
2017-08-01T22:22:24.574Z,48.79
2017-08-01T22:24:54.049Z,48.70
2017-08-01T22:27:23.484Z,49.40
2017-08-01T22:29:52.948Z,50.39
2017-08-01T22:32:22.388Z,50.82
2017-08-01T22:34:51.841Z,51.61
2017-08-01T22:37:21.304Z,52.50
2017-08-01T22:39:50.749Z,52.70
2017-08-01T22:42:20.199Z,53.02
2017-08-01T22:44:49.664Z,52.71
2017-08-01T22:47:19.151Z,52.01
2017-08-01T22:49:48.590Z,51.86
2017-08-01T22:52:18.041Z,52.19
2017-08-01T22:54:47.515Z,52.14
2017-08-01T22:57:17.024Z,52.57
2017-08-01T22:59:46.486Z,52.77
2017-08-01T23:02:15.942Z,52.78
2017-08-01T23:04:45.389Z,52.14
2017-08-01T23:07:14.856Z,50.29
2017-08-01T23:09:44.309Z,50.81
2017-08-01T23:12:13.737Z,51.22
2017-08-01T23:14:43.314Z,51.44
2017-08-01T23:17:12.739Z,52.01
2017-08-01T23:19:42.191Z,51.18
2017-08-01T23:22:11.640Z,52.37
2017-08-01T23:24:41.018Z,52.47
2017-08-01T23:27:10.465Z,52.94
2017-08-01T23:29:39.906Z,53.13
2017-08-01T23:32:09.356Z,52.98
2017-08-01T23:34:38.808Z,53.52
2017-08-01T23:37:08.268Z,52.70
2017-08-01T23:39:37.709Z,52.02
2017-08-01T23:42:07.182Z,52.20
2017-08-01T23:44:36.628Z,53.10
2017-08-01T23:47:06.069Z,53.79
2017-08-01T23:49:35.513Z,54.49
2017-08-01T23:52:04.968Z,54.64
2017-08-01T23:54:34.400Z,55.27
2017-08-01T23:57:03.851Z,55.67
2017-08-01T23:59:33.297Z,56.20
